Rexville, New York
Current Conditions -  °F | °C
As of 1:56 PM on Saturday 25 Oct 2014 (Local Time) from KELZ Reporting Station
Few Clouds Few Clouds  
Wind Chill: 63°   Ceiling: Unl
Heat Index: 63°   Visibility: 10mi
Dew Point: 41°   Wind: 13mph
Humidity: 45%   Direction: 250°WSW
Pressure: 29.71"   Gusts: 23mph
Location:  42.08°N, 77.66°W
Report Text: KELZ 251756Z AUTO 25011G20KT 10SM FEW050 17/05 A2971 RMK AO2 SLP059 T01720050 10178 20089 58037
Loading
Personal Weather Stations






























Interactive Weather Map
Tropical Storm Tracking
New forecast layout! Learn more

10-Day Weather Forecast

Advertisements
Track Severe Weather on mobile